This is the latest recevied weather packets stored in our database for station/object KC1OEK-13. If no packets are shown the sender has not sent any weather packets the latest 10 day(s).
| Time | Temp. | Humidity | Pressure | Rain* | Wind** | Luminosity | Snow |
|---|---|---|---|---|---|---|---|
| 1777870712 | 2.22° C | 82% | 1013.7 hPa | 0 mm | - | 0 W/m² | - |
| 1777870406 | 2.22° C | 81% | 1013.7 hPa | 0 mm | - | 0 W/m² | - |
| 1777870103 | 2.22° C | 81% | 1013.9 hPa | 0 mm | - | 0 W/m² | - |
| 1777869801 | 2.22° C | 81% | 1013.6 hPa | 0 mm | - | 0 W/m² | - |
| 1777869498 | 2.22° C | 81% | 1013.6 hPa | 0 mm | - | 0 W/m² | - |
| 1777869195 | 2.22° C | 80% | 1013.8 hPa | 0 mm | - | 0 W/m² | - |
| 1777868892 | 2.22° C | 80% | 1013.7 hPa | 0 mm | - | 0 W/m² | - |
| 1777868589 | 2.22° C | 80% | 1013.7 hPa | 0 mm | - | 0 W/m² | - |
| 1777868285 | 2.22° C | 80% | 1013.7 hPa | 0 mm | - | 0 W/m² | - |
| 1777867981 | 2.22° C | 79% | 1013.5 hPa | 0 mm | - | 0 W/m² | - |
| 1777867678 | 2.78° C | 78% | 1013.4 hPa | 0 mm | - | 0 W/m² | - |
| 1777867375 | 2.78° C | 77% | 1013.5 hPa | 0 mm | - | 0 W/m² | - |
| 1777867071 | 2.78° C | 76% | 1013.3 hPa | 0 mm | - | 0 W/m² | - |
| 1777866768 | 2.78° C | 77% | 1013.4 hPa | 0 mm | - | 0 W/m² | - |
| 1777866465 | 2.78° C | 76% | 1013.4 hPa | 0 mm | - | 0 W/m² | - |
| 1777865860 | 2.78° C | 75% | 1013.5 hPa | 0 mm | - | 0 W/m² | - |
| 1777865558 | 2.78° C | 74% | 1013.4 hPa | 0 mm | - | 0 W/m² | - |
| 1777864346 | 3.89° C | 71% | 1013.5 hPa | 0 mm | - | 0 W/m² | - |
| 1777863739 | 3.89° C | 69% | 1013.2 hPa | 0 mm | - | 0 W/m² | - |
| 1777843435 | 12.22° C | 34% | 1011 hPa | 0 mm | - | 298 W/m² | - |
| 1777843131 | 12.22° C | 35% | 1011.2 hPa | 0 mm | - | 137 W/m² | - |
| 1777841916 | 13.33° C | 35% | 1011.1 hPa | 0 mm | - | 367 W/m² | - |
| 1777840704 | 13.33° C | 35% | 1010.9 hPa | 0 mm | - | 437 W/m² | - |
| 1777840098 | 13.33° C | 36% | 1011.1 hPa | 0 mm | - | 496 W/m² | - |
| 1777839796 | 12.78° C | 37% | 1011 hPa | 0 mm | - | 478 W/m² | - |
* Rain latest hour (hover to see other rain measurements)
** Current wind speed in m/s (hover to see current wind gust speed)